Terminal Aerodrome Forecast
Issued by NWS Charleston, WV

Current Version | Previous Version | Text Only | Print | Product List | Glossary Off
Versions: 1 2 3 4 5 6 7 8 9 10 11 12 13 14 15 16 17 18 19 20 21 22 23 24 25 26

000
FTUS41 KRLX 251100
TAFHTS
TAF
KHTS 251131Z 2512/2612 20005KT P6SM BKN250
     FM251500 22005KT P6SM SCT040
     FM251700 23010KT P6SM BKN040
     FM260500 29004KT P6SM SCT025
     FM260600 VRB03KT P6SM SCT250=

USA.gov is the U.S. government's official web portal to all federal, state and local government web resources and services.